createdAt,value
2017-12-05T00:01:08.800Z,24.90
2017-12-05T00:03:12.693Z,23.97
2017-12-05T00:05:16.086Z,26.50
2017-12-05T00:07:19.498Z,24.67
2017-12-05T00:09:22.839Z,24.60
2017-12-05T00:11:26.194Z,25.00
2017-12-05T00:13:29.538Z,23.43
2017-12-05T00:15:32.867Z,23.93
2017-12-05T00:17:36.990Z,23.77
2017-12-05T00:19:40.331Z,25.00
2017-12-05T00:21:43.714Z,22.47
2017-12-05T00:23:47.852Z,23.90
2017-12-05T00:25:51.199Z,23.27
2017-12-05T00:27:54.567Z,23.50
2017-12-05T00:29:57.920Z,23.40
2017-12-05T00:32:02.053Z,23.93
2017-12-05T00:34:05.370Z,22.80
2017-12-05T00:36:08.729Z,24.50
2017-12-05T00:38:13.045Z,24.13
2017-12-05T00:40:16.373Z,23.73
2017-12-05T00:42:19.794Z,21.83
2017-12-05T00:44:23.977Z,21.97
2017-12-05T00:46:28.013Z,22.37
2017-12-05T00:48:32.206Z,23.17
2017-12-05T00:50:36.357Z,23.00
2017-12-05T00:52:39.696Z,22.33
2017-12-05T00:54:43.070Z,21.97
2017-12-05T00:56:46.419Z,22.40
2017-12-05T00:58:50.565Z,23.10
2017-12-05T01:00:53.893Z,23.30
2017-12-05T01:02:58.037Z,24.37
2017-12-05T01:05:02.208Z,24.80
2017-12-05T01:07:05.549Z,22.27
2017-12-05T01:09:08.904Z,24.87
2017-12-05T01:11:13.028Z,23.80
2017-12-05T01:13:16.384Z,24.37
2017-12-05T01:15:19.766Z,25.07
2017-12-05T01:17:23.084Z,24.27
2017-12-05T01:19:26.463Z,23.40
2017-12-05T01:21:29.808Z,22.40
2017-12-05T01:23:33.140Z,23.03
2017-12-05T01:25:36.555Z,21.70
2017-12-05T01:27:39.853Z,22.63
2017-12-05T01:29:43.203Z,22.70
2017-12-05T01:31:46.582Z,22.77
2017-12-05T01:33:49.968Z,23.17
2017-12-05T01:35:53.334Z,22.13
2017-12-05T01:37:57.459Z,22.80
2017-12-05T01:40:00.839Z,23.23
2017-12-05T01:42:04.989Z,22.47
2017-12-05T01:44:08.333Z,23.00
2017-12-05T01:46:12.496Z,21.40
2017-12-05T01:48:15.843Z,21.17
2017-12-05T01:50:19.229Z,20.70
2017-12-05T01:52:23.352Z,22.10
2017-12-05T01:54:26.693Z,19.70
2017-12-05T01:56:30.069Z,21.13
2017-12-05T01:58:33.422Z,21.67
2017-12-05T02:00:41.861Z,21.73
2017-12-05T02:02:45.257Z,21.00
2017-12-05T02:04:48.633Z,21.30
2017-12-05T02:06:52.046Z,21.63
2017-12-05T02:08:56.602Z,21.03
2017-12-05T02:11:00.826Z,21.20
2017-12-05T02:13:04.199Z,20.03
2017-12-05T02:15:08.330Z,20.87
2017-12-05T02:17:12.464Z,19.30
2017-12-05T02:19:15.825Z,20.60
2017-12-05T02:21:19.820Z,20.93
2017-12-05T02:23:23.215Z,21.80
2017-12-05T02:25:27.378Z,21.13
2017-12-05T02:27:30.763Z,20.27
2017-12-05T02:29:34.097Z,22.13
2017-12-05T02:31:37.453Z,24.60
2017-12-05T02:33:40.798Z,21.93
2017-12-05T02:35:44.923Z,23.67
2017-12-05T02:37:48.313Z,21.80
2017-12-05T02:39:52.424Z,23.43
2017-12-05T02:41:55.793Z,22.53
2017-12-05T02:43:59.213Z,26.10
2017-12-05T02:46:02.607Z,22.77
2017-12-05T02:48:06.029Z,24.10
2017-12-05T02:50:09.419Z,22.90
2017-12-05T02:52:12.845Z,24.00
2017-12-05T02:54:16.269Z,23.20
2017-12-05T02:56:19.637Z,23.80
2017-12-05T02:58:23.046Z,24.47
2017-12-05T03:00:26.423Z,23.80
2017-12-05T03:02:29.851Z,23.63
2017-12-05T03:04:33.309Z,24.77
2017-12-05T03:06:37.420Z,22.73
2017-12-05T03:08:40.834Z,24.93
2017-12-05T03:10:44.207Z,26.03
2017-12-05T03:12:47.551Z,23.00
2017-12-05T03:14:50.958Z,27.27
2017-12-05T03:16:55.124Z,23.97
2017-12-05T03:18:58.546Z,23.90
2017-12-05T03:21:01.906Z,23.83
2017-12-05T03:23:05.290Z,26.90
2017-12-05T03:25:09.465Z,26.97
2017-12-05T03:27:12.833Z,23.90
2017-12-05T03:29:16.200Z,26.00
2017-12-05T03:31:20.318Z,25.70
2017-12-05T03:33:23.651Z,24.00
2017-12-05T03:35:27.023Z,25.43
2017-12-05T03:37:30.373Z,24.80
2017-12-05T03:39:33.724Z,26.03
2017-12-05T03:41:37.083Z,26.20
2017-12-05T03:43:40.471Z,23.60
2017-12-05T03:45:43.865Z,24.27
2017-12-05T03:47:47.192Z,24.17
2017-12-05T03:49:50.561Z,25.53
2017-12-05T03:51:53.949Z,24.43
2017-12-05T03:53:57.282Z,24.40
2017-12-05T03:56:00.665Z,22.83
2017-12-05T03:58:04.808Z,22.67
2017-12-05T04:00:08.919Z,25.87
2017-12-05T04:02:12.521Z,25.60
2017-12-05T04:04:15.853Z,25.93
2017-12-05T04:06:19.202Z,23.87
2017-12-05T04:08:23.352Z,24.23
2017-12-05T04:10:26.673Z,25.13
2017-12-05T04:12:30.837Z,24.00
2017-12-05T04:14:34.163Z,23.80
2017-12-05T04:16:37.497Z,25.27
2017-12-05T04:18:40.900Z,26.47
2017-12-05T04:20:44.252Z,24.70
2017-12-05T04:22:47.618Z,24.83
2017-12-05T04:24:51.728Z,25.20
2017-12-05T04:26:55.083Z,27.10
2017-12-05T04:28:58.467Z,25.10
2017-12-05T04:31:02.575Z,23.00
2017-12-05T04:33:05.908Z,22.83
2017-12-05T04:35:09.287Z,25.70
2017-12-05T04:37:12.653Z,23.33
2017-12-05T04:39:16.797Z,24.37
2017-12-05T04:41:21.045Z,25.30
2017-12-05T04:43:24.387Z,21.83
2017-12-05T04:45:27.798Z,22.57
2017-12-05T04:47:31.893Z,22.67
2017-12-05T04:49:35.267Z,22.13
2017-12-05T04:51:38.618Z,22.57
2017-12-05T04:53:42.750Z,22.47
2017-12-05T04:55:46.166Z,21.43
2017-12-05T04:57:49.540Z,21.10
2017-12-05T04:59:52.938Z,20.03
2017-12-05T05:01:56.310Z,20.77
2017-12-05T05:04:00.422Z,20.53
2017-12-05T05:06:03.930Z,17.27
2017-12-05T05:08:07.333Z,19.20
2017-12-05T05:10:11.849Z,19.73
2017-12-05T05:12:15.200Z,20.07
2017-12-05T05:14:18.583Z,19.33
2017-12-05T05:16:21.958Z,19.93
2017-12-05T05:18:25.336Z,20.10
2017-12-05T05:20:28.703Z,18.60
2017-12-05T05:22:32.087Z,20.30
2017-12-05T05:24:37.376Z,20.30
2017-12-05T05:26:40.762Z,20.93
2017-12-05T05:28:44.109Z,19.47
2017-12-05T05:30:48.258Z,18.53
2017-12-05T05:32:51.658Z,19.13
2017-12-05T05:34:55.099Z,18.50
2017-12-05T05:36:58.572Z,19.80
2017-12-05T05:39:02.726Z,18.90
2017-12-05T05:41:06.071Z,17.80
2017-12-05T05:43:09.463Z,17.30
2017-12-05T05:45:12.819Z,17.40
2017-12-05T05:47:16.144Z,17.60
2017-12-05T05:49:19.559Z,15.77
2017-12-05T05:51:23.795Z,20.27
2017-12-05T05:53:27.170Z,18.40
2017-12-05T05:55:30.521Z,17.57
2017-12-05T05:57:33.887Z,18.87
2017-12-05T05:59:37.283Z,19.33
2017-12-05T06:01:40.659Z,18.00
2017-12-05T06:03:44.062Z,21.47
2017-12-05T06:05:47.619Z,19.47
2017-12-05T06:07:51.151Z,20.17
2017-12-05T06:09:54.557Z,19.77
2017-12-05T06:11:57.906Z,21.03
2017-12-05T06:14:01.328Z,19.67
2017-12-05T06:16:04.691Z,21.10
2017-12-05T06:18:08.850Z,19.80
2017-12-05T06:20:12.246Z,21.30
2017-12-05T06:22:15.612Z,17.70
2017-12-05T06:24:18.966Z,21.50
2017-12-05T06:26:23.139Z,19.97
2017-12-05T06:28:26.485Z,19.67
2017-12-05T06:30:30.634Z,19.50
2017-12-05T06:32:33.939Z,20.13
2017-12-05T06:34:37.627Z,19.33
2017-12-05T06:36:40.950Z,19.03
2017-12-05T06:38:44.292Z,18.70
2017-12-05T06:40:47.672Z,18.60
2017-12-05T06:42:51.002Z,19.90
2017-12-05T06:44:54.418Z,19.70
2017-12-05T06:46:58.573Z,17.73
2017-12-05T06:49:01.936Z,19.00
2017-12-05T06:51:06.917Z,18.03
2017-12-05T06:53:10.271Z,18.10
2017-12-05T06:55:13.686Z,18.53
2017-12-05T06:57:17.855Z,18.20
2017-12-05T06:59:21.226Z,19.33
2017-12-05T07:01:24.673Z,19.50
2017-12-05T07:03:28.116Z,16.60
2017-12-05T07:05:31.470Z,18.23
2017-12-05T07:07:34.897Z,19.30
2017-12-05T07:09:39.045Z,20.07
2017-12-05T07:11:42.504Z,19.43
2017-12-05T07:13:45.912Z,19.20
2017-12-05T07:15:51.131Z,19.10
2017-12-05T07:17:54.679Z,19.13
2017-12-05T07:19:58.896Z,18.70
2017-12-05T07:22:02.319Z,18.37
2017-12-05T07:24:06.468Z,20.73
2017-12-05T07:26:09.828Z,18.80
2017-12-05T07:28:14.921Z,21.57
2017-12-05T07:30:18.293Z,22.20
2017-12-05T07:32:21.719Z,18.17
2017-12-05T07:34:25.074Z,19.37
2017-12-05T07:36:28.553Z,21.23
2017-12-05T07:38:33.504Z,20.40
2017-12-05T07:40:37.856Z,20.17
2017-12-05T07:42:42.068Z,20.73
2017-12-05T07:44:45.943Z,19.40
2017-12-05T07:46:50.452Z,21.13
2017-12-05T07:48:54.566Z,20.50
2017-12-05T07:50:59.190Z,22.60
2017-12-05T07:53:03.533Z,21.50
2017-12-05T07:55:06.981Z,21.33
2017-12-05T07:57:11.095Z,22.90
2017-12-05T07:59:15.235Z,21.40
2017-12-05T08:01:19.170Z,22.67
2017-12-05T08:03:22.554Z,22.67
2017-12-05T08:05:26.002Z,24.07
2017-12-05T08:07:29.398Z,20.90
2017-12-05T08:09:32.832Z,22.63
2017-12-05T08:11:36.216Z,21.40
2017-12-05T08:13:40.385Z,20.67
2017-12-05T08:15:43.868Z,20.93
2017-12-05T08:17:47.982Z,20.50
2017-12-05T08:19:52.443Z,20.40
2017-12-05T08:21:55.863Z,19.60
2017-12-05T08:24:00.234Z,20.20
2017-12-05T08:26:03.691Z,17.90
2017-12-05T08:28:07.054Z,20.27
2017-12-05T08:30:10.421Z,22.40
2017-12-05T08:32:13.806Z,19.43
2017-12-05T08:34:17.210Z,21.27
2017-12-05T08:36:20.671Z,21.40
2017-12-05T08:38:24.103Z,22.03
2017-12-05T08:40:27.591Z,20.40
2017-12-05T08:42:31.745Z,20.60
2017-12-05T08:44:35.888Z,21.60
2017-12-05T08:46:39.306Z,20.60
2017-12-05T08:48:42.893Z,20.30
2017-12-05T08:50:46.371Z,20.50
2017-12-05T08:52:50.229Z,19.63
2017-12-05T08:54:53.665Z,19.73
2017-12-05T08:56:57.374Z,22.10
2017-12-05T08:59:00.787Z,23.67
2017-12-05T09:01:04.166Z,22.13
2017-12-05T09:03:07.572Z,21.77
2017-12-05T09:05:11.043Z,22.23
2017-12-05T09:07:14.446Z,21.87
2017-12-05T09:09:19.298Z,22.07
2017-12-05T09:11:22.673Z,23.00
2017-12-05T09:13:26.148Z,22.00
2017-12-05T09:15:29.541Z,23.03
2017-12-05T09:17:32.936Z,21.30
2017-12-05T09:19:36.363Z,19.40
2017-12-05T09:21:39.751Z,19.90
2017-12-05T09:23:43.766Z,20.00
2017-12-05T09:25:47.224Z,19.70
2017-12-05T09:27:50.644Z,18.53
2017-12-05T09:29:54.813Z,21.20
2017-12-05T09:31:58.197Z,17.73
2017-12-05T09:34:01.628Z,17.10
2017-12-05T09:36:05.288Z,19.07
2017-12-05T09:38:09.396Z,19.07
2017-12-05T09:40:14.633Z,18.73
2017-12-05T09:42:18.024Z,19.03
2017-12-05T09:44:21.456Z,18.37
2017-12-05T09:46:25.781Z,17.00
2017-12-05T09:48:29.226Z,18.10
2017-12-05T09:50:32.688Z,15.70
2017-12-05T09:52:36.863Z,15.80
2017-12-05T09:54:40.269Z,15.37
2017-12-05T09:56:43.696Z,15.67
2017-12-05T09:58:47.865Z,15.60
2017-12-05T10:00:51.287Z,12.90
2017-12-05T10:02:55.421Z,15.90
2017-12-05T10:04:58.822Z,13.73
2017-12-05T10:07:02.245Z,15.20
2017-12-05T10:09:05.628Z,15.30
2017-12-05T10:11:09.031Z,15.97
2017-12-05T10:13:12.391Z,15.10
2017-12-05T10:15:15.782Z,15.70
2017-12-05T10:17:19.154Z,19.40
2017-12-05T10:19:23.277Z,17.90
2017-12-05T10:21:26.675Z,18.57
2017-12-05T10:23:30.073Z,16.80
2017-12-05T10:25:33.500Z,18.10
2017-12-05T10:27:37.199Z,17.83
2017-12-05T10:29:40.579Z,18.57
2017-12-05T10:31:44.037Z,18.07
2017-12-05T10:33:47.388Z,16.87
2017-12-05T10:35:51.558Z,15.57
2017-12-05T10:37:54.977Z,17.40
2017-12-05T10:39:58.341Z,16.50
2017-12-05T10:42:01.779Z,16.87
2017-12-05T10:44:05.136Z,18.30
2017-12-05T10:46:08.476Z,17.90
2017-12-05T10:48:13.139Z,18.27
2017-12-05T10:50:16.551Z,18.87
2017-12-05T10:52:20.007Z,17.10
2017-12-05T10:54:24.142Z,18.37
2017-12-05T10:56:27.604Z,18.87
2017-12-05T10:58:31.307Z,19.33
2017-12-05T11:00:34.694Z,18.20
2017-12-05T11:02:38.163Z,18.37
2017-12-05T11:04:41.509Z,17.97
2017-12-05T11:06:44.918Z,19.73
2017-12-05T11:08:48.337Z,18.50
2017-12-05T11:10:51.799Z,18.70
2017-12-05T11:12:55.275Z,19.90
2017-12-05T11:15:00.291Z,20.70
2017-12-05T11:17:04.448Z,19.80
2017-12-05T11:19:07.847Z,20.43
2017-12-05T11:21:11.255Z,21.27
2017-12-05T11:23:14.647Z,19.53
2017-12-05T11:25:18.032Z,18.10
2017-12-05T11:27:21.825Z,23.30
2017-12-05T11:29:25.624Z,20.20
2017-12-05T11:31:29.008Z,18.20
2017-12-05T11:33:32.398Z,19.60
2017-12-05T11:35:35.843Z,21.60
2017-12-05T11:37:39.199Z,18.87
2017-12-05T11:39:42.567Z,19.43
2017-12-05T11:41:46.663Z,17.10
2017-12-05T11:43:50.068Z,20.17
2017-12-05T11:45:53.450Z,18.30
2017-12-05T11:47:56.848Z,20.20
2017-12-05T11:50:00.331Z,19.67
2017-12-05T11:52:03.696Z,20.50
2017-12-05T11:54:07.068Z,17.43
2017-12-05T11:56:10.452Z,19.47
2017-12-05T11:58:13.851Z,17.53
2017-12-05T12:00:17.261Z,17.43
2017-12-05T12:02:20.641Z,16.73
2017-12-05T12:04:24.071Z,18.23
2017-12-05T12:06:28.243Z,19.07
2017-12-05T12:08:33.099Z,16.10
2017-12-05T12:10:36.468Z,17.00
2017-12-05T12:12:39.903Z,17.13
2017-12-05T12:14:43.249Z,16.80
2017-12-05T12:16:47.241Z,18.83
2017-12-05T12:18:50.706Z,17.93
2017-12-05T12:20:54.129Z,17.20
2017-12-05T12:22:57.519Z,16.97
2017-12-05T12:25:01.081Z,16.50
2017-12-05T12:27:04.513Z,17.23
2017-12-05T12:29:08.712Z,16.60
2017-12-05T12:31:12.966Z,15.87
2017-12-05T12:33:16.399Z,16.87
2017-12-05T12:35:19.739Z,16.80
2017-12-05T12:37:23.160Z,17.07
2017-12-05T12:39:26.503Z,19.00
2017-12-05T12:41:29.913Z,18.97
2017-12-05T12:43:33.287Z,17.03
2017-12-05T12:45:36.656Z,17.33
2017-12-05T12:47:40.049Z,17.90
2017-12-05T12:49:43.415Z,16.93
2017-12-05T12:51:47.635Z,18.53
2017-12-05T12:53:52.110Z,18.37
2017-12-05T12:55:56.098Z,17.90
2017-12-05T12:58:00.365Z,18.97
2017-12-05T13:00:03.841Z,19.50
2017-12-05T13:02:07.864Z,19.70
2017-12-05T13:04:11.992Z,19.63
2017-12-05T13:08:41.402Z,17.77
2017-12-05T13:10:48.084Z,17.13
2017-12-05T13:12:54.895Z,18.50
2017-12-05T13:14:59.952Z,18.90
2017-12-05T13:17:04.553Z,18.37
2017-12-05T13:19:09.901Z,20.47
2017-12-05T13:21:13.775Z,17.13
2017-12-05T13:23:17.170Z,18.77
2017-12-05T13:25:20.770Z,17.03
2017-12-05T13:27:25.201Z,19.30
2017-12-05T13:29:28.626Z,18.50
2017-12-05T13:31:33.023Z,17.90
2017-12-05T13:33:38.045Z,17.93
2017-12-05T13:35:41.610Z,18.10
2017-12-05T13:37:45.017Z,20.10
2017-12-05T13:39:48.556Z,18.97
2017-12-05T13:41:52.039Z,18.73
2017-12-05T13:43:55.519Z,18.90
2017-12-05T13:45:58.944Z,19.53
2017-12-05T13:48:04.059Z,19.33
2017-12-05T13:50:07.566Z,20.13
2017-12-05T13:52:12.607Z,18.77
2017-12-05T13:54:16.776Z,19.87
2017-12-05T13:56:20.244Z,23.00
2017-12-05T13:58:23.663Z,19.97
2017-12-05T14:00:27.074Z,21.13
2017-12-05T14:02:31.290Z,22.33
2017-12-05T14:04:34.888Z,20.03
2017-12-05T14:06:38.454Z,21.37
2017-12-05T14:08:42.591Z,21.90
2017-12-05T14:10:47.034Z,23.03
2017-12-05T14:12:50.441Z,22.90
2017-12-05T14:14:54.176Z,21.90
2017-12-05T14:16:57.571Z,22.10
2017-12-05T14:19:00.921Z,22.00
2017-12-05T14:21:05.104Z,23.73
2017-12-05T14:23:09.239Z,22.23
2017-12-05T14:25:12.653Z,24.07
2017-12-05T14:27:16.247Z,23.10
2017-12-05T14:29:19.645Z,22.27
2017-12-05T14:31:23.064Z,21.83
2017-12-05T14:33:26.468Z,21.50
2017-12-05T14:35:29.822Z,22.47
2017-12-05T14:37:33.241Z,23.33
2017-12-05T14:39:36.624Z,24.20
2017-12-05T14:41:40.064Z,23.13
2017-12-05T14:43:43.403Z,22.57
2017-12-05T14:45:47.112Z,22.17
2017-12-05T14:47:50.559Z,22.43
2017-12-05T14:49:53.942Z,22.13
2017-12-05T14:51:57.528Z,25.13
2017-12-05T14:54:00.916Z,28.57
2017-12-05T14:56:06.516Z,24.57
2017-12-05T14:58:10.124Z,25.40
2017-12-05T15:00:14.843Z,23.60
2017-12-05T15:02:19.031Z,23.63
2017-12-05T15:04:24.298Z,23.53
2017-12-05T15:06:27.872Z,22.57
2017-12-05T15:08:31.366Z,21.07
2017-12-05T15:10:35.554Z,21.37
2017-12-05T15:12:39.187Z,22.17
2017-12-05T15:14:42.579Z,20.00
2017-12-05T15:16:45.939Z,22.30
2017-12-05T15:18:49.457Z,21.80
2017-12-05T15:20:52.895Z,22.10
2017-12-05T15:22:57.094Z,23.73
2017-12-05T15:25:00.520Z,21.97
2017-12-05T15:27:04.535Z,22.50
2017-12-05T15:29:07.994Z,25.03
2017-12-05T15:31:11.511Z,25.10
2017-12-05T15:33:14.969Z,24.10
2017-12-05T15:35:18.385Z,23.77
2017-12-05T15:37:21.795Z,23.30
2017-12-05T15:39:25.256Z,22.60
2017-12-05T15:41:29.423Z,25.40
2017-12-05T15:43:33.876Z,23.60
2017-12-05T15:45:37.307Z,23.67
2017-12-05T15:47:40.665Z,23.07
2017-12-05T15:49:44.856Z,24.20
2017-12-05T15:51:48.881Z,24.67
2017-12-05T15:53:54.189Z,24.23
2017-12-05T15:55:57.601Z,24.37
2017-12-05T15:58:01.162Z,23.97
2017-12-05T16:00:05.441Z,25.80
2017-12-05T16:02:09.677Z,22.57
2017-12-05T16:04:13.911Z,24.43
2017-12-05T16:06:17.408Z,24.27
2017-12-05T16:08:22.433Z,23.33
2017-12-05T16:10:26.972Z,27.77
2017-12-05T16:12:30.460Z,28.40
2017-12-05T16:14:40.703Z,28.77
2017-12-05T16:16:48.010Z,24.77
2017-12-05T16:18:51.649Z,24.97
2017-12-05T16:20:55.083Z,29.77
2017-12-05T16:23:05.364Z,27.17
2017-12-05T16:25:08.708Z,28.20
2017-12-05T16:27:13.065Z,24.93
2017-12-05T16:29:17.249Z,31.90
2017-12-05T16:31:20.701Z,30.50
2017-12-05T16:33:24.480Z,32.80
2017-12-05T16:35:28.604Z,33.53
2017-12-05T16:37:33.021Z,37.37
2017-12-05T16:39:36.676Z,27.50
2017-12-05T16:41:40.153Z,27.50
2017-12-05T16:43:43.552Z,27.60
2017-12-05T16:45:47.197Z,27.17
2017-12-05T16:47:52.913Z,25.30
2017-12-05T16:49:58.809Z,26.27
2017-12-05T16:52:04.236Z,26.53
2017-12-05T16:54:07.978Z,26.60
2017-12-05T16:56:11.415Z,27.83
2017-12-05T16:58:14.902Z,24.50
2017-12-05T17:00:18.346Z,25.60
2017-12-05T17:02:22.374Z,24.93
2017-12-05T17:04:26.216Z,25.00
2017-12-05T17:06:29.872Z,24.20
2017-12-05T17:08:33.955Z,24.40
2017-12-05T17:10:37.522Z,25.83
2017-12-05T17:12:41.311Z,23.90
2017-12-05T17:14:46.095Z,23.40
2017-12-05T17:16:50.490Z,24.60
2017-12-05T17:18:53.935Z,25.10
2017-12-05T17:20:57.316Z,23.27
2017-12-05T17:23:00.744Z,22.50
2017-12-05T17:25:04.174Z,24.60
2017-12-05T17:27:07.529Z,23.70
2017-12-05T17:29:10.929Z,22.47
2017-12-05T17:31:14.442Z,23.07
2017-12-05T17:33:17.898Z,24.83
2017-12-05T17:35:22.076Z,23.90
2017-12-05T17:37:25.499Z,24.93
2017-12-05T17:39:28.927Z,26.33
2017-12-05T17:41:32.392Z,30.90
2017-12-05T17:43:40.440Z,25.00
2017-12-05T17:45:44.883Z,28.50
2017-12-05T17:47:51.001Z,27.50
2017-12-05T17:49:55.548Z,28.27
2017-12-05T17:51:59.802Z,23.27
2017-12-05T17:54:03.234Z,23.90
2017-12-05T17:56:06.750Z,24.83
2017-12-05T17:58:10.116Z,22.83
2017-12-05T18:00:13.989Z,22.80
2017-12-05T18:02:19.039Z,22.50
2017-12-05T18:04:23.372Z,23.10
2017-12-05T18:06:26.800Z,22.70
2017-12-05T18:08:30.592Z,23.00
2017-12-05T18:10:34.032Z,23.83
2017-12-05T18:12:37.447Z,22.30
2017-12-05T18:14:42.004Z,21.60
2017-12-05T18:16:47.390Z,21.83
2017-12-05T18:18:52.658Z,22.87
2017-12-05T18:20:58.500Z,20.73
2017-12-05T18:23:02.440Z,20.57
2017-12-05T18:25:06.989Z,22.00
2017-12-05T18:27:10.415Z,22.80
2017-12-05T18:29:13.913Z,22.27
2017-12-05T18:31:18.886Z,22.37
2017-12-05T18:33:22.363Z,25.07
2017-12-05T18:35:26.007Z,26.70
2017-12-05T18:37:29.508Z,27.90
2017-12-05T18:39:34.174Z,22.60
2017-12-05T18:41:39.681Z,22.13
2017-12-05T18:43:43.232Z,23.37
2017-12-05T18:45:47.036Z,23.00
2017-12-05T18:47:51.299Z,22.80
2017-12-05T18:49:55.851Z,23.90
2017-12-05T18:51:59.277Z,22.47
2017-12-05T18:54:03.212Z,23.27
2017-12-05T18:56:06.823Z,22.10
2017-12-05T18:58:12.803Z,23.00
2017-12-05T19:00:16.306Z,23.27
2017-12-05T19:02:20.510Z,21.27
2017-12-05T19:04:23.929Z,22.30
2017-12-05T19:06:27.349Z,21.57
2017-12-05T19:08:30.844Z,23.30
2017-12-05T19:10:35.199Z,24.20
2017-12-05T19:12:39.085Z,24.93
2017-12-05T19:14:42.559Z,23.70
2017-12-05T19:16:46.687Z,21.80
2017-12-05T19:18:50.320Z,25.33
2017-12-05T19:20:54.636Z,24.27
2017-12-05T19:22:58.944Z,26.53
2017-12-05T19:25:02.736Z,26.67
2017-12-05T19:27:07.402Z,24.10
2017-12-05T19:29:10.912Z,22.80
2017-12-05T19:31:15.070Z,25.03
2017-12-05T19:33:18.945Z,25.23
2017-12-05T19:35:23.273Z,25.20
2017-12-05T19:37:28.062Z,26.93
2017-12-05T19:39:32.005Z,31.07
2017-12-05T19:41:35.475Z,26.07
2017-12-05T19:43:40.518Z,24.20
2017-12-05T19:45:43.968Z,28.73
2017-12-05T19:47:51.005Z,25.30
2017-12-05T19:49:55.521Z,25.00
2017-12-05T19:51:59.132Z,26.30
2017-12-05T19:54:02.660Z,27.57
2017-12-05T19:56:06.074Z,30.23
2017-12-05T19:58:09.600Z,33.77
2017-12-05T20:00:13.124Z,30.60
2017-12-05T20:02:16.656Z,27.20
2017-12-05T20:04:20.119Z,25.70
2017-12-05T20:06:23.549Z,26.60
2017-12-05T20:08:27.009Z,26.87
2017-12-05T20:10:30.984Z,26.33
2017-12-05T20:12:35.199Z,25.70
2017-12-05T20:14:39.034Z,25.27
2017-12-05T20:16:42.585Z,26.57
2017-12-05T20:18:46.054Z,25.67
2017-12-05T20:20:50.261Z,25.40
2017-12-05T20:22:54.924Z,25.63
2017-12-05T20:24:58.357Z,26.97
2017-12-05T20:27:02.408Z,25.20
2017-12-05T20:29:05.978Z,27.63
2017-12-05T20:31:09.730Z,27.13
2017-12-05T20:33:13.369Z,28.17
2017-12-05T20:35:17.570Z,25.37
2017-12-05T20:37:21.085Z,26.37
2017-12-05T20:39:25.281Z,26.53
2017-12-05T20:41:29.009Z,26.90
2017-12-05T20:43:33.209Z,26.30
2017-12-05T20:45:36.700Z,23.97
2017-12-05T20:47:40.864Z,26.90
2017-12-05T20:49:43.997Z,28.77
2017-12-05T20:51:47.197Z,27.27
2017-12-05T20:53:50.386Z,27.73
2017-12-05T20:55:57.241Z,25.17
2017-12-05T20:58:00.361Z,26.40
2017-12-05T21:00:03.498Z,27.40
2017-12-05T21:02:06.632Z,25.40
2017-12-05T21:04:09.769Z,24.17
2017-12-05T21:06:13.700Z,25.37
2017-12-05T21:08:16.807Z,24.80
2017-12-05T21:10:20.711Z,26.60
2017-12-05T21:12:23.838Z,27.03
2017-12-05T21:14:27.721Z,29.67
2017-12-05T21:16:31.252Z,27.97
2017-12-05T21:18:35.223Z,28.50
2017-12-05T21:20:38.339Z,30.67
2017-12-05T21:22:42.266Z,29.60
2017-12-05T21:24:45.409Z,29.50
2017-12-05T21:26:49.373Z,29.50
2017-12-05T21:28:52.500Z,32.30
2017-12-05T21:30:55.867Z,31.00
2017-12-05T21:32:58.992Z,29.67
2017-12-05T21:35:02.104Z,28.10
2017-12-05T21:37:05.451Z,27.13
2017-12-05T21:39:09.359Z,26.60
2017-12-05T21:41:12.454Z,26.60
2017-12-05T21:43:16.378Z,27.13
2017-12-05T21:45:19.486Z,29.53
2017-12-05T21:47:22.597Z,27.60
2017-12-05T21:49:25.761Z,29.27
2017-12-05T21:51:28.850Z,33.07
2017-12-05T21:53:32.000Z,29.30
2017-12-05T21:55:35.123Z,28.13
2017-12-05T21:57:38.230Z,28.40
2017-12-05T21:59:41.366Z,29.10
2017-12-05T22:01:44.477Z,27.67
2017-12-05T22:03:47.640Z,30.83
2017-12-05T22:05:50.729Z,31.33
2017-12-05T22:07:53.821Z,28.33
2017-12-05T22:09:57.216Z,27.43
2017-12-05T22:12:00.599Z,29.73
2017-12-05T22:14:03.968Z,28.37
2017-12-05T22:16:07.375Z,27.43
2017-12-05T22:18:10.743Z,27.83
2017-12-05T22:20:14.122Z,27.87
2017-12-05T22:22:17.479Z,26.63
2017-12-05T22:24:20.836Z,26.43
2017-12-05T22:26:24.240Z,26.33
2017-12-05T22:28:28.521Z,26.33
2017-12-05T22:30:31.887Z,25.80
2017-12-05T22:32:35.238Z,26.70
2017-12-05T22:34:38.612Z,25.57
2017-12-05T22:36:42.001Z,25.50
2017-12-05T22:38:45.351Z,25.63
2017-12-05T22:40:49.554Z,25.50
2017-12-05T22:42:53.665Z,26.77
2017-12-05T22:44:57.812Z,24.97
2017-12-05T22:47:01.236Z,25.03
2017-12-05T22:49:04.589Z,26.40
2017-12-05T22:51:08.367Z,25.47
2017-12-05T22:53:11.722Z,24.20
2017-12-05T22:55:15.096Z,25.13
2017-12-05T22:57:19.633Z,26.60
2017-12-05T22:59:23.044Z,25.30
2017-12-05T23:01:26.468Z,22.63
2017-12-05T23:03:29.915Z,22.07
2017-12-05T23:05:34.111Z,24.63
2017-12-05T23:07:37.501Z,24.90
2017-12-05T23:09:40.830Z,23.90
2017-12-05T23:11:44.216Z,21.90
2017-12-05T23:13:47.700Z,24.50
2017-12-05T23:15:51.155Z,21.97
2017-12-05T23:17:54.570Z,23.53
2017-12-05T23:19:59.075Z,24.80
2017-12-05T23:22:02.485Z,24.40
2017-12-05T23:24:05.868Z,23.30
2017-12-05T23:26:09.276Z,23.43
2017-12-05T23:28:12.692Z,23.83
2017-12-05T23:30:16.856Z,23.77
2017-12-05T23:32:20.283Z,21.77
2017-12-05T23:34:23.679Z,23.87
2017-12-05T23:36:27.012Z,22.40
2017-12-05T23:38:31.239Z,20.90
2017-12-05T23:40:35.742Z,23.30
2017-12-05T23:42:39.914Z,22.53
2017-12-05T23:44:43.417Z,22.50
2017-12-05T23:46:46.764Z,24.07
2017-12-05T23:48:50.134Z,21.50
2017-12-05T23:50:53.513Z,21.30
2017-12-05T23:52:57.051Z,23.27
2017-12-05T23:55:00.437Z,22.73
2017-12-05T23:57:03.840Z,21.13
2017-12-05T23:59:07.317Z,23.90
